createdAt,value
2023-05-03T00:01:14.048Z,54.33
2023-05-03T00:03:40.388Z,54.66
2023-05-03T00:06:11.415Z,55.02
2023-05-03T00:08:37.778Z,55.20
2023-05-03T00:11:04.156Z,55.05
2023-05-03T00:13:30.541Z,56.37
2023-05-03T00:15:56.905Z,55.97
2023-05-03T00:18:23.940Z,56.57
2023-05-03T00:20:51.141Z,56.43
2023-05-03T00:23:17.514Z,56.85
2023-05-03T00:25:44.617Z,56.75
2023-05-03T00:28:11.029Z,56.71
2023-05-03T00:30:37.357Z,57.08
2023-05-03T00:33:03.801Z,56.70
2023-05-03T00:35:30.242Z,57.15
2023-05-03T00:37:56.650Z,56.35
2023-05-03T00:40:22.979Z,57.46
2023-05-03T00:42:49.353Z,58.00
2023-05-03T00:45:15.852Z,57.98
2023-05-03T00:47:43.319Z,57.42
2023-05-03T00:50:11.818Z,57.69
2023-05-03T00:52:39.339Z,57.55
2023-05-03T00:55:07.125Z,57.91
2023-05-03T00:57:33.649Z,57.92
2023-05-03T01:00:00.555Z,58.18
2023-05-03T01:02:28.202Z,58.25
2023-05-03T01:04:55.609Z,58.39
2023-05-03T01:07:45.688Z,58.62
2023-05-03T01:10:46.629Z,58.78
2023-05-03T01:13:33.456Z,59.09
2023-05-03T01:16:23.380Z,59.15
2023-05-03T01:18:53.453Z,59.55
2023-05-03T01:21:22.727Z,59.63
2023-05-03T01:23:59.657Z,58.85
2023-05-03T01:26:27.670Z,59.55
2023-05-03T01:28:55.780Z,59.95
2023-05-03T01:31:46.746Z,59.45
2023-05-03T01:34:33.518Z,60.12
2023-05-03T01:37:03.236Z,59.97
2023-05-03T01:39:36.130Z,60.02
2023-05-03T01:42:04.899Z,60.24
2023-05-03T01:44:32.463Z,60.84
2023-05-03T01:46:58.839Z,60.10
2023-05-03T01:49:25.266Z,60.53
2023-05-03T01:51:51.691Z,60.12
2023-05-03T01:54:18.151Z,60.40
2023-05-03T01:56:45.269Z,60.80
2023-05-03T01:59:11.659Z,60.59
2023-05-03T02:01:38.042Z,60.76
2023-05-03T02:04:04.519Z,60.78
2023-05-03T02:06:31.596Z,59.79
2023-05-03T02:08:58.137Z,60.86
2023-05-03T02:11:24.551Z,61.16
2023-05-03T02:13:50.986Z,60.93
2023-05-03T02:16:18.363Z,61.46
2023-05-03T02:18:44.849Z,61.04
2023-05-03T02:21:11.238Z,60.85
2023-05-03T02:23:37.568Z,61.05
2023-05-03T02:26:03.917Z,61.82
2023-05-03T02:28:30.321Z,61.02
2023-05-03T02:30:56.692Z,60.10
2023-05-03T02:33:23.093Z,61.29
2023-05-03T02:35:49.445Z,60.64
2023-05-03T02:38:16.424Z,60.69
2023-05-03T02:40:42.953Z,60.76
2023-05-03T02:43:09.488Z,60.54
2023-05-03T02:45:36.700Z,60.71
2023-05-03T02:48:03.533Z,60.69
2023-05-03T02:50:29.949Z,60.01
2023-05-03T02:52:56.617Z,60.72
2023-05-03T02:55:22.989Z,60.66
2023-05-03T02:57:49.439Z,60.46
2023-05-03T03:00:16.653Z,60.71
2023-05-03T03:02:43.436Z,60.65
2023-05-03T03:05:10.025Z,60.51
2023-05-03T03:07:37.824Z,60.16
2023-05-03T03:10:04.750Z,61.17
2023-05-03T03:12:31.346Z,61.02
2023-05-03T03:14:57.663Z,60.80
2023-05-03T03:17:24.067Z,61.05
2023-05-03T03:19:50.472Z,60.74
2023-05-03T03:22:16.881Z,61.04
2023-05-03T03:24:43.196Z,60.65
2023-05-03T03:27:09.562Z,60.81
2023-05-03T03:29:35.866Z,60.90
2023-05-03T03:32:02.434Z,60.83
2023-05-03T03:34:29.060Z,60.14
2023-05-03T03:36:56.310Z,61.63
2023-05-03T03:39:22.670Z,61.93
2023-05-03T03:41:49.085Z,61.47
2023-05-03T03:44:15.531Z,62.09
2023-05-03T03:46:41.955Z,63.06
2023-05-03T03:49:08.417Z,62.64
2023-05-03T03:51:34.897Z,63.51
2023-05-03T03:54:01.225Z,62.02
2023-05-03T03:56:27.580Z,61.99
2023-05-03T03:58:53.910Z,61.42
2023-05-03T04:01:20.495Z,61.83
2023-05-03T04:03:49.848Z,62.70
2023-05-03T04:06:24.805Z,62.99
2023-05-03T04:08:51.174Z,63.49
2023-05-03T04:11:17.491Z,63.28
2023-05-03T04:13:43.921Z,63.31
2023-05-03T04:16:10.520Z,63.46
2023-05-03T04:18:36.844Z,63.80
2023-05-03T04:21:03.225Z,63.10
2023-05-03T04:23:29.609Z,63.21
2023-05-03T04:25:57.095Z,63.44
2023-05-03T04:28:23.664Z,63.64
2023-05-03T04:30:50.536Z,63.93
2023-05-03T04:33:17.387Z,64.53
2023-05-03T04:35:43.716Z,63.56
2023-05-03T04:38:10.095Z,64.50
2023-05-03T04:40:37.169Z,64.16
2023-05-03T04:43:03.617Z,64.24
2023-05-03T04:45:29.951Z,64.07
2023-05-03T04:47:56.414Z,63.76
2023-05-03T04:50:22.805Z,64.19
2023-05-03T04:52:49.179Z,64.03
2023-05-03T04:55:15.633Z,63.27
2023-05-03T04:57:42.471Z,63.67
2023-05-03T05:00:12.352Z,63.46
2023-05-03T05:02:38.815Z,63.45
2023-05-03T05:05:05.744Z,63.51
2023-05-03T05:07:32.065Z,62.67
2023-05-03T05:09:58.494Z,64.24
2023-05-03T05:12:24.924Z,63.91
2023-05-03T05:14:51.257Z,63.07
2023-05-03T05:17:17.701Z,63.25
2023-05-03T05:19:44.233Z,63.76
2023-05-03T05:22:10.682Z,64.47
2023-05-03T05:24:37.036Z,63.28
2023-05-03T05:27:03.728Z,63.33
2023-05-03T05:29:30.070Z,63.16
2023-05-03T05:31:56.696Z,62.94
2023-05-03T05:34:23.172Z,62.06
2023-05-03T05:36:50.461Z,62.30
2023-05-03T05:39:17.464Z,62.28
2023-05-03T05:41:43.789Z,62.43
2023-05-03T05:44:10.151Z,62.45
2023-05-03T05:46:36.497Z,62.92
2023-05-03T05:49:02.919Z,63.26
2023-05-03T05:51:30.567Z,62.64
2023-05-03T05:53:57.006Z,63.34
2023-05-03T05:56:23.572Z,62.91
2023-05-03T05:58:49.994Z,62.88
2023-05-03T06:01:16.316Z,63.03
2023-05-03T06:03:42.648Z,63.53
2023-05-03T06:06:09.063Z,63.27
2023-05-03T06:08:36.122Z,61.82
2023-05-03T06:11:02.468Z,62.46
2023-05-03T06:13:28.882Z,61.45
2023-05-03T06:15:55.279Z,62.21
2023-05-03T06:18:21.672Z,61.93
2023-05-03T06:20:51.197Z,61.59
2023-05-03T06:23:17.796Z,61.83
2023-05-03T06:25:46.930Z,62.02
2023-05-03T06:28:13.266Z,60.81
2023-05-03T06:30:39.720Z,61.73
2023-05-03T06:33:06.805Z,60.99
2023-05-03T06:35:33.239Z,60.61
2023-05-03T06:37:59.590Z,60.80
2023-05-03T06:40:27.042Z,60.41
2023-05-03T06:42:53.434Z,60.38
2023-05-03T06:45:19.825Z,59.79
2023-05-03T06:47:46.529Z,60.07
2023-05-03T06:50:13.856Z,59.01
2023-05-03T06:52:40.288Z,59.63
2023-05-03T06:55:07.622Z,57.95
2023-05-03T06:57:33.942Z,57.11
2023-05-03T07:00:00.374Z,57.92
2023-05-03T07:02:27.447Z,56.87
2023-05-03T07:04:53.963Z,56.70
2023-05-03T07:07:20.609Z,56.05
2023-05-03T07:09:47.192Z,55.93
2023-05-03T07:12:13.561Z,55.81
2023-05-03T07:14:40.540Z,55.52
2023-05-03T07:17:07.496Z,56.15
2023-05-03T07:19:34.204Z,56.10
2023-05-03T07:22:02.724Z,55.06
2023-05-03T07:24:29.477Z,54.87
2023-05-03T07:26:58.023Z,54.18
2023-05-03T07:29:24.538Z,56.23
2023-05-03T07:31:53.324Z,56.25
2023-05-03T07:34:19.989Z,55.90
2023-05-03T07:36:46.335Z,55.11
2023-05-03T07:39:12.660Z,54.11
2023-05-03T07:41:39.050Z,54.70
2023-05-03T07:44:05.386Z,54.14
2023-05-03T07:46:35.271Z,53.79
2023-05-03T07:49:04.020Z,53.20
2023-05-03T07:51:31.659Z,53.61
2023-05-03T07:53:58.115Z,53.59
2023-05-03T07:56:27.001Z,54.03
2023-05-03T07:59:04.653Z,51.42
2023-05-03T08:01:35.507Z,51.88
2023-05-03T08:04:01.975Z,51.61
2023-05-03T08:06:28.814Z,51.75
2023-05-03T08:08:55.182Z,52.25
2023-05-03T08:11:21.522Z,52.53
2023-05-03T08:13:47.906Z,52.47
2023-05-03T08:16:14.619Z,52.32
2023-05-03T08:18:41.303Z,51.51
2023-05-03T08:21:09.577Z,50.18
2023-05-03T08:23:36.623Z,48.86
2023-05-03T08:26:04.702Z,50.05
2023-05-03T08:28:31.296Z,49.57
2023-05-03T08:30:57.798Z,50.36
2023-05-03T08:33:24.522Z,50.11
2023-05-03T08:35:50.862Z,49.34
2023-05-03T08:38:17.631Z,48.82
2023-05-03T08:40:48.139Z,48.35
2023-05-03T08:43:16.523Z,49.29
2023-05-03T08:45:42.907Z,46.87
2023-05-03T08:48:09.281Z,48.22
2023-05-03T08:50:41.938Z,46.91
2023-05-03T08:53:09.678Z,45.64
2023-05-03T08:55:36.766Z,46.12
2023-05-03T08:58:10.411Z,44.35
2023-05-03T09:00:36.737Z,43.30
2023-05-03T09:03:04.058Z,44.85
2023-05-03T09:05:32.566Z,45.96
2023-05-03T09:08:16.964Z,44.59
2023-05-03T09:10:43.499Z,43.67
2023-05-03T09:13:10.476Z,43.55
2023-05-03T09:15:37.141Z,44.05
2023-05-03T09:18:20.766Z,45.41
2023-05-03T09:20:52.595Z,45.21
2023-05-03T09:23:31.246Z,45.03
2023-05-03T09:25:58.944Z,44.32
2023-05-03T09:28:25.589Z,43.80
2023-05-03T09:31:04.848Z,42.77
2023-05-03T09:33:31.326Z,43.00
2023-05-03T09:35:59.738Z,43.53
2023-05-03T09:38:28.105Z,43.48
2023-05-03T09:40:54.486Z,43.11
2023-05-03T09:43:20.956Z,43.18
2023-05-03T09:45:47.344Z,43.87
2023-05-03T09:48:14.021Z,42.08
2023-05-03T09:50:42.572Z,43.09
2023-05-03T09:53:10.542Z,40.93
2023-05-03T09:55:38.925Z,41.19
2023-05-03T09:58:06.801Z,41.75
2023-05-03T10:00:38.358Z,40.14
2023-05-03T10:03:10.285Z,41.85
2023-05-03T10:05:51.263Z,41.09
2023-05-03T10:08:33.003Z,40.49
2023-05-03T10:11:00.205Z,39.83
2023-05-03T10:13:28.632Z,42.54
2023-05-03T10:16:06.629Z,39.05
2023-05-03T10:18:34.259Z,39.75
2023-05-03T10:21:14.826Z,39.63
2023-05-03T10:24:13.226Z,40.23
2023-05-03T10:26:41.357Z,40.02
2023-05-03T10:29:37.374Z,39.45
2023-05-03T10:32:05.076Z,39.24
2023-05-03T10:34:36.822Z,38.78
2023-05-03T10:37:09.718Z,37.05
2023-05-03T10:39:37.089Z,40.21
2023-05-03T10:42:07.702Z,37.35
2023-05-03T10:44:51.619Z,36.85
2023-05-03T10:47:21.835Z,35.96
2023-05-03T10:50:08.324Z,36.34
2023-05-03T10:52:38.046Z,33.01
2023-05-03T10:55:20.796Z,30.19
2023-05-03T10:57:48.821Z,28.03
2023-05-03T11:00:38.625Z,25.53
2023-05-03T11:03:18.265Z,24.19
2023-05-03T11:05:47.197Z,23.96
2023-05-03T11:08:17.599Z,24.70
2023-05-03T11:10:45.389Z,25.59
2023-05-03T11:13:12.075Z,24.24
2023-05-03T11:15:39.020Z,26.49
2023-05-03T11:18:11.336Z,26.13
2023-05-03T11:20:38.171Z,26.67
2023-05-03T11:23:05.853Z,25.69
2023-05-03T11:25:33.885Z,24.45
2023-05-03T11:28:01.920Z,24.87
2023-05-03T11:30:29.621Z,26.89
2023-05-03T11:32:56.525Z,28.83
2023-05-03T11:35:27.023Z,27.14
2023-05-03T11:37:54.102Z,26.79
2023-05-03T11:40:21.368Z,26.86
2023-05-03T11:43:00.841Z,27.95
2023-05-03T11:45:32.706Z,25.46
2023-05-03T11:47:59.498Z,26.50
2023-05-03T11:50:55.741Z,25.52
2023-05-03T11:53:24.173Z,26.66
2023-05-03T11:55:53.734Z,27.32
2023-05-03T11:58:24.970Z,28.06
2023-05-03T12:00:53.961Z,25.45
2023-05-03T12:03:24.615Z,26.83
2023-05-03T12:05:54.655Z,25.68
2023-05-03T12:08:23.258Z,24.69
2023-05-03T12:10:53.625Z,29.26
2023-05-03T12:13:34.083Z,27.30
2023-05-03T12:16:11.779Z,27.34
2023-05-03T12:18:48.025Z,25.91
2023-05-03T12:23:46.021Z,28.69
2023-05-03T12:26:14.494Z,26.72
2023-05-03T12:28:41.296Z,25.83
2023-05-03T12:31:08.026Z,25.06
2023-05-03T12:33:37.248Z,26.79
2023-05-03T12:36:09.207Z,25.95
2023-05-03T12:38:37.746Z,26.30
2023-05-03T12:41:06.728Z,26.71
2023-05-03T12:43:36.304Z,29.39
2023-05-03T12:46:31.683Z,27.91
2023-05-03T12:48:54.188Z,26.60
2023-05-03T12:51:25.559Z,27.22
2023-05-03T12:53:55.236Z,26.64
2023-05-03T12:56:24.990Z,25.42
2023-05-03T12:59:14.984Z,26.62
2023-05-03T13:02:40.910Z,27.29
2023-05-03T13:06:59.234Z,26.99
2023-05-03T13:09:37.808Z,27.44
2023-05-03T13:12:14.166Z,27.54
2023-05-03T13:14:42.310Z,27.27
2023-05-03T13:17:09.000Z,30.83
2023-05-03T13:19:36.574Z,30.04
2023-05-03T13:22:02.907Z,29.43
2023-05-03T13:24:29.439Z,27.60
2023-05-03T13:26:55.790Z,28.50
2023-05-03T13:29:22.457Z,27.39
2023-05-03T13:31:48.778Z,27.43
2023-05-03T13:34:15.167Z,29.19
2023-05-03T13:36:41.687Z,26.39
2023-05-03T13:39:10.247Z,26.44
2023-05-03T13:41:40.209Z,25.85
2023-05-03T13:44:07.648Z,26.08
2023-05-03T13:46:37.862Z,25.62
2023-05-03T13:49:07.582Z,27.82
2023-05-03T13:51:34.931Z,27.41
2023-05-03T13:54:03.233Z,28.13
2023-05-03T13:56:30.103Z,26.17
2023-05-03T13:58:57.144Z,26.88
2023-05-03T14:01:24.776Z,28.37
2023-05-03T14:03:52.058Z,26.49
2023-05-03T14:06:20.038Z,28.21
2023-05-03T14:08:47.191Z,27.72
2023-05-03T14:11:17.964Z,27.49
2023-05-03T14:13:56.511Z,28.92
2023-05-03T14:16:39.355Z,27.13
2023-05-03T14:19:09.899Z,29.55
2023-05-03T14:21:36.472Z,27.12
2023-05-03T14:24:02.932Z,27.74
2023-05-03T14:26:29.483Z,28.07
2023-05-03T14:28:56.332Z,27.46
2023-05-03T14:31:22.932Z,25.43
2023-05-03T14:33:49.365Z,28.19
2023-05-03T14:36:15.993Z,26.07
2023-05-03T14:38:42.439Z,27.33
2023-05-03T14:41:09.189Z,26.58
2023-05-03T14:43:35.772Z,26.57
2023-05-03T14:46:02.455Z,27.61
2023-05-03T14:48:28.850Z,27.86
2023-05-03T14:50:56.433Z,27.16
2023-05-03T14:53:23.417Z,26.09
2023-05-03T14:55:49.983Z,26.41
2023-05-03T14:58:16.498Z,28.63
2023-05-03T15:00:43.487Z,29.36
2023-05-03T15:03:11.911Z,27.28
2023-05-03T15:05:46.762Z,27.59
2023-05-03T15:08:19.252Z,27.45
2023-05-03T15:10:46.682Z,26.56
2023-05-03T15:13:14.461Z,26.70
2023-05-03T15:15:43.409Z,26.45
2023-05-03T15:18:10.118Z,27.74
2023-05-03T15:20:36.504Z,25.99
2023-05-03T15:23:04.182Z,27.50
2023-05-03T15:25:31.071Z,25.26
2023-05-03T15:27:57.489Z,25.36
2023-05-03T15:30:23.833Z,27.52
2023-05-03T15:32:51.136Z,26.98
2023-05-03T15:35:18.025Z,25.31
2023-05-03T15:37:44.449Z,25.95
2023-05-03T15:40:12.519Z,25.88
2023-05-03T15:42:39.304Z,26.34
2023-05-03T15:45:07.157Z,25.97
2023-05-03T15:47:33.740Z,26.16
2023-05-03T15:50:00.397Z,27.12
2023-05-03T15:52:26.740Z,26.24
2023-05-03T15:54:54.747Z,26.96
2023-05-03T15:57:21.349Z,26.12
2023-05-03T15:59:48.628Z,27.40
2023-05-03T16:02:15.374Z,26.78
2023-05-03T16:04:41.816Z,27.04
2023-05-03T16:07:08.520Z,25.04
2023-05-03T16:09:35.033Z,24.77
2023-05-03T16:12:02.298Z,26.29
2023-05-03T16:14:28.635Z,26.13
2023-05-03T16:16:55.016Z,25.91
2023-05-03T16:19:21.573Z,25.48
2023-05-03T16:21:48.001Z,25.99
2023-05-03T16:24:14.445Z,25.68
2023-05-03T16:26:41.229Z,27.18
2023-05-03T16:29:07.707Z,26.76
2023-05-03T16:31:34.257Z,27.87
2023-05-03T16:34:01.039Z,27.16
2023-05-03T16:36:27.922Z,27.28
2023-05-03T16:38:54.458Z,27.84
2023-05-03T16:41:21.212Z,29.75
2023-05-03T16:43:47.550Z,27.91
2023-05-03T16:46:13.979Z,28.24
2023-05-03T16:48:40.397Z,26.96
2023-05-03T16:51:06.755Z,28.21
2023-05-03T16:53:33.253Z,28.56
2023-05-03T16:55:59.707Z,28.13
2023-05-03T16:58:26.319Z,28.45
2023-05-03T17:00:53.304Z,29.44
2023-05-03T17:03:19.901Z,30.54
2023-05-03T17:05:46.421Z,30.62
2023-05-03T17:08:13.490Z,28.64
2023-05-03T17:10:39.997Z,30.43
2023-05-03T17:13:06.495Z,29.61
2023-05-03T17:15:32.993Z,29.06
2023-05-03T17:18:01.948Z,31.55
2023-05-03T17:20:30.170Z,30.83
2023-05-03T17:22:56.708Z,29.93
2023-05-03T17:25:23.219Z,29.42
2023-05-03T17:27:51.653Z,30.71
2023-05-03T17:30:21.229Z,30.75
2023-05-03T17:32:48.420Z,31.43
2023-05-03T17:35:14.913Z,30.74
2023-05-03T17:37:41.340Z,29.85
2023-05-03T17:40:08.644Z,30.61
2023-05-03T17:42:35.455Z,31.79
2023-05-03T17:45:05.155Z,30.35
2023-05-03T17:47:35.116Z,32.00
2023-05-03T17:50:04.682Z,32.29
2023-05-03T17:52:32.942Z,32.37
2023-05-03T17:54:59.370Z,31.19
2023-05-03T17:57:26.430Z,32.18
2023-05-03T17:59:52.927Z,31.81
2023-05-03T18:02:19.656Z,31.25
2023-05-03T18:04:46.815Z,31.86
2023-05-03T18:07:13.320Z,30.96
2023-05-03T18:09:40.949Z,32.52
2023-05-03T18:12:09.660Z,32.29
2023-05-03T18:14:37.189Z,31.86
2023-05-03T18:17:05.670Z,32.85
2023-05-03T18:19:36.162Z,32.65
2023-05-03T18:22:02.774Z,33.23
2023-05-03T18:24:29.280Z,32.69
2023-05-03T18:26:58.641Z,32.97
2023-05-03T18:29:25.838Z,32.68
2023-05-03T18:31:54.765Z,34.45
2023-05-03T18:34:21.651Z,33.03
2023-05-03T18:36:49.135Z,33.30
2023-05-03T18:39:17.141Z,33.11
2023-05-03T18:41:43.884Z,33.38
2023-05-03T18:44:10.333Z,33.48
2023-05-03T18:46:39.736Z,33.78
2023-05-03T18:49:09.873Z,34.09
2023-05-03T18:51:36.502Z,34.23
2023-05-03T18:54:05.288Z,34.27
2023-05-03T18:56:32.402Z,34.74
2023-05-03T18:58:59.985Z,34.91
2023-05-03T19:01:29.846Z,35.33
2023-05-03T19:03:56.831Z,35.71
2023-05-03T19:06:23.465Z,35.00
2023-05-03T19:08:50.066Z,35.42
2023-05-03T19:11:17.289Z,35.81
2023-05-03T19:13:47.441Z,36.18
2023-05-03T19:16:15.543Z,35.89
2023-05-03T19:18:42.239Z,36.48
2023-05-03T19:21:12.402Z,35.74
2023-05-03T19:23:38.992Z,38.17
2023-05-03T19:26:06.350Z,37.05
2023-05-03T19:28:33.210Z,36.66
2023-05-03T19:31:05.719Z,37.74
2023-05-03T19:33:32.667Z,36.25
2023-05-03T19:36:08.476Z,36.63
2023-05-03T19:38:38.365Z,36.73
2023-05-03T19:41:14.196Z,36.52
2023-05-03T19:43:41.399Z,37.17
2023-05-03T19:46:07.976Z,37.65
2023-05-03T19:48:35.082Z,38.39
2023-05-03T19:51:02.558Z,38.12
2023-05-03T19:53:29.149Z,38.59
2023-05-03T19:55:56.796Z,38.58
2023-05-03T19:58:23.657Z,38.82
2023-05-03T20:00:50.602Z,39.14
2023-05-03T20:03:17.520Z,39.27
2023-05-03T20:05:44.487Z,38.76
2023-05-03T20:08:11.143Z,38.71
2023-05-03T20:10:37.723Z,38.96
2023-05-03T20:13:04.159Z,39.01
2023-05-03T20:15:31.308Z,39.88
2023-05-03T20:17:58.161Z,39.37
2023-05-03T20:20:24.962Z,39.04
2023-05-03T20:22:51.324Z,40.37
2023-05-03T20:25:18.299Z,39.00
2023-05-03T20:27:44.927Z,39.28
2023-05-03T20:30:11.732Z,39.36
2023-05-03T20:32:41.628Z,39.70
2023-05-03T20:35:11.419Z,39.61
2023-05-03T20:37:40.736Z,39.90
2023-05-03T20:40:07.886Z,40.26
2023-05-03T20:42:34.294Z,39.64
2023-05-03T20:45:00.725Z,40.14
2023-05-03T20:47:27.684Z,40.20
2023-05-03T20:49:54.111Z,40.80
2023-05-03T20:52:20.585Z,40.44
2023-05-03T20:54:47.121Z,40.73
2023-05-03T20:57:15.736Z,40.76
2023-05-03T20:59:44.489Z,40.55
2023-05-03T21:02:11.020Z,40.45
2023-05-03T21:04:38.008Z,40.77
2023-05-03T21:07:04.379Z,42.97
2023-05-03T21:09:31.440Z,41.63
2023-05-03T21:11:58.261Z,41.38
2023-05-03T21:14:26.271Z,41.98
2023-05-03T21:16:52.668Z,42.35
2023-05-03T21:19:19.034Z,41.94
2023-05-03T21:21:45.526Z,41.93
2023-05-03T21:24:11.957Z,41.67
2023-05-03T21:26:38.734Z,41.46
2023-05-03T21:29:05.270Z,41.74
2023-05-03T21:31:31.630Z,41.88
2023-05-03T21:33:58.521Z,41.95
2023-05-03T21:36:25.157Z,42.75
2023-05-03T21:38:52.809Z,43.11
2023-05-03T21:41:19.447Z,44.63
2023-05-03T21:43:46.593Z,43.94
2023-05-03T21:46:13.018Z,43.77
2023-05-03T21:48:40.229Z,44.27
2023-05-03T21:51:06.686Z,43.21
2023-05-03T21:53:33.370Z,43.07
2023-05-03T21:55:59.684Z,43.55
2023-05-03T21:58:26.111Z,43.50
2023-05-03T22:00:52.703Z,43.64
2023-05-03T22:03:19.256Z,43.89
2023-05-03T22:05:48.609Z,43.55
2023-05-03T22:08:17.944Z,44.02
2023-05-03T22:10:45.283Z,44.59
2023-05-03T22:13:12.213Z,44.11
2023-05-03T22:15:38.712Z,43.72
2023-05-03T22:18:05.479Z,44.29
2023-05-03T22:20:32.124Z,44.13
2023-05-03T22:22:58.581Z,44.60
2023-05-03T22:25:27.045Z,44.43
2023-05-03T22:27:54.173Z,44.14
2023-05-03T22:30:20.867Z,45.46
2023-05-03T22:32:47.736Z,45.01
2023-05-03T22:35:14.929Z,45.31
2023-05-03T22:37:41.630Z,45.54
2023-05-03T22:40:09.373Z,45.51
2023-05-03T22:42:35.999Z,46.07
2023-05-03T22:45:02.426Z,45.70
2023-05-03T22:47:28.925Z,45.78
2023-05-03T22:49:55.764Z,45.13
2023-05-03T22:52:22.185Z,45.99
2023-05-03T22:54:48.505Z,45.79
2023-05-03T22:57:14.836Z,46.28
2023-05-03T22:59:45.273Z,45.71
2023-05-03T23:02:11.665Z,46.39
2023-05-03T23:04:37.977Z,46.04
2023-05-03T23:07:04.391Z,47.06
2023-05-03T23:09:30.838Z,46.85
2023-05-03T23:11:57.356Z,47.66
2023-05-03T23:14:23.754Z,46.89
2023-05-03T23:16:50.335Z,47.32
2023-05-03T23:19:16.771Z,48.15
2023-05-03T23:21:43.137Z,47.45
2023-05-03T23:24:09.576Z,48.04
2023-05-03T23:26:35.896Z,48.18
2023-05-03T23:29:02.688Z,49.29
2023-05-03T23:31:31.336Z,49.77
2023-05-03T23:33:59.739Z,49.62
2023-05-03T23:36:26.065Z,48.96
2023-05-03T23:38:52.643Z,49.17
2023-05-03T23:41:19.072Z,49.23
2023-05-03T23:43:45.430Z,49.79
2023-05-03T23:46:11.954Z,50.26
2023-05-03T23:48:38.332Z,50.29
2023-05-03T23:51:04.894Z,50.56
2023-05-03T23:53:31.256Z,50.11
2023-05-03T23:55:57.694Z,50.97
2023-05-03T23:58:24.045Z,50.93
